India Meteorological Department
Airport METARs
Date : 25-09-2017
Sl. # Airport METAR
1 Agartala VEAT 250400Z 18007KT 4000 BR SCT018 FEW030CB BKN100 29/27 Q1007 TEMPO 3000 -TSRA=
2 Ahmedabad VAAH 250400Z 33006KT 4000 HZ FEW020 SCT080 29/23 Q1010 NOSIG=
3 Allahabad VEAB 250330Z 28005KT 3000 BR BKN010 SCT020 28/26 Q1007 BECMG 5000=
4 Amritsar VIAR 250400Z VRB02KT 3500 BR NSC 29/25 Q1008 NOSIG=
5 Aurangabad VAAU 250300Z 36003KT 3000 HZ NSC 26/23 Q1012 NOSIG=
6 Bangalore VOBL 250400Z 27008KT 4000 BR SCT008 SCT012 FEW025CB OVC080 21/21 Q1015 NOSIG=
7 Baroda VABO 250300Z 32006 KT 4000 HZ FEW020 28/23 Q1010 BECMG 5000=
8 Bhaunagar VABV 250330Z 28004KT 5000 HZ NSC 28/23 Q1010=
9 Bhopal VABP 250400Z 27007KT 3000 HZ NSC 27/23 Q1012 NOSIG=
10 Bhubaneswar VEBS 250400Z 28002KT 5000 HZ NSC 31/27 Q1006 NOSIG=
11 Bhuntar VIBR 250400Z 00000KT 8000 FEW015 SCT030 21/18 Q1014=
12 Chennai VOMM 250400Z 31010KT 5000 -DZ SCT018 FEW025CB BKN080 27/23 Q1009 NOSIG=
13 Coimbatore VOCB 250400Z 23002KT 5000 -DZ SCT015 BKN080 24/23 Q1013 NOSIG=
14 Colombo VCBI 250310Z 24005KT 200V280 9000 SCT018 FEW020CB 26/23 Q1010 NOSIG RMK SW=
15 Delhi VIDP 250400Z 29007KT 2500 BR NSC 29/24 Q1008 NOSIG =
16 Dehradun VIDN 250330Z 00000KT 6000 SCT080 24/21 Q1008=
17 Gauhati VEGT 250400Z 34003KT 3000 BR FEW010 SCT018 BKN100 31/28 Q1007 NOSIG=
18 Gaya VEGY 250400Z NIL=
19 Gaggal VIGG 250330Z 13001KT 6000 FEW035 SCT100 23/20 Q1012=
20 Goa VOGO 250300Z 02004KT 6000 FEW014 SCT016 BKN080 27/24 Q1009 NOSIG=
21 Fursatganj VERB 250400Z 27003KT 5000 BR FEW025 30/26 Q1005 =
22 Hyderabad VOHS 250400Z NIL=
23 Imphal VEIM 250400Z 15002KT 5000 BR SCT018 SCT100 29/25 Q1011 NOSIG=
24 Indore VAID 250400Z 30007KT 3000 HZ NSC 26/24 Q1013=
25 Jabalpur VAJB 250300Z 27004KT 4000 HZ NSC 27/24 Q1010=
26 Jaipur VIJP 250400Z 31009KT 3500 HZ FEW030 SCT090 29/18 Q1011 NOSIG=
27 Khajuraho VEKO 250300Z 00000KT 6000 NSC 28/23 Q1008=
28 Kochi VOCI 250400Z 02004KT 5000 HZ FEW015 SCT090 29/24 Q1010 NOSIG=
29 Kolkata VECC 250400Z 00000KT 3500 HZ FEW020 SCT100 33/26 Q1006 NOSIG=
30 Kozhikode VOCL 250400Z 33003KT 4000 BR FEW004 SCT012 FEW025CB BKN080 28/24 Q1011 BECMG 6000=
31 Lucknow VILK 250330Z 30003KT 3000 BR FEW100 28/26 Q1007 NOSIG=
32 Madurai VOMD 250400Z 30006KT 6000 FEW020 SCT090 29/23 Q1010 NOSIG=
33 Mohanbari VEMN 250400Z 19003KT 5000 HZ FEW020 FEW025CB BKN100 32/27 Q1007 NOSIG=
34 Mumbai VABB 250400Z 33005KT 4000 HZ SCT020 SCT025 29/25 Q1010 NOSIG=
35 Nagpur VANP 250400Z 36006KT 5000 HZ NSC 30/25 Q1010 NOSIG=
36 Patna VEPT 250400Z 26003KT 4000 HZ NSC 32/26 1006 NOSIG=
37 Raipur VERP 250300Z 32004KT 3000 HZ NSC 27/25 Q1009 NOSIG=
38 Safdarjung VIDD 250330Z 28006KT 3000 BR NSC 27/24 Q1008 NOSIG=
39 Shimla VISM 250300Z 4000 HZ FEW030 21/15 Q1016=
40 Ranchi VERC 250400Z 34004KT 3000 HZ SCT018 29/22 Q1011 BECMG 5000 HZ=
41 Trichy VOTR 250400Z 29012KT 6000 SCT016 SCT080 BKN080 27/23 Q1008 NOSIG=
42 Trivandrum VOTV 250400Z 32006KT 5000 HZ SCT015 SCT080 30/25 Q1010 NOSIG=
43 Udaipur VAUD 250400Z 00000KT 5000 HZ NSC 29/21 Q1012 NOSIG=
44 Varanasi VEBN 250400Z 28005KT 3000 BR SCT020 BKN100 28/26 Q1006 NOSIG=
45 Vizag VOVZ 250400Z 32007KT 4500 HZ FEW018 31/26 Q1006 BECMG 5000 BR =
46 Male VRMM 250400Z 29008KT 9999 FEW018 BKNT280 30/25 Q1011 NOSIG=
47 Gan VRMG 250400Z 24008KT 9999 DZ FEW017 SCT020 BKN110 29/25 Q1012 TEMP0 6000 -SHRA=
48 Kathmandu VNKT 250400Z NIL=
49 Dhaka VGHS 250400Z 00000KT 4000 HZ BKN009 FEW025CB OVC100 30/26 Q1007 TEMPO TSRA=
50 Colombo VCBI 250310Z 24005KT 200V280 9000 SCT018 FEW020CB 26/23 Q1010 NOSIG RMK SW=
51 Karachi OPKC 250330Z NIL=
52 Lahore OPLA 250330Z NIL=
53 Leh VILH 250330Z 30004KT 6000 FEW070 16/M06 Q1025 NOSIG RMK AC=
54 Sri Nagar VISR 250330Z VRB02KT 5000 FU SKC 19/10 Q1018 NOSIG=
55 Jammu VIJU 250330Z VRB02KT 5000 HZ FEW100 2721 Q1008 NOSIG=
56 Bhuj-Rudra VABJ 250330Z 2506/2518 25010KT 6000 SCT025 SCT090 BECMG 2515/2517 VRB02KT=
57 Gorakhpur VEGK 250330Z VRB02KT 3000 BR SCT010 SCT012 BKN020 29/27 Q1006 BECMG 4000=
58 Agra VIAG 250330Z 29006KT 4000 BR SKC 28/25 Q1008 BECMG 5000M=
59 Bagdogra VEBD 250330Z 05004KT 4500 BR SCT015 SCT020 FEWTCU030 BKN090 28/26 Q1005 TEMPO 4000M -RA=
60 Gwalior VIGR 250300Z 00000KT 4000 HZ NSC 27/25 Q1008=
61 Pune VAPO 250330Z 27004KT 3000 BR SCT015 SCT250 26/23 Q1014 BECMG 5000 BR=
62 Chandigarh VICG 250230Z 29004KT 4000 BR FEW100 25/23 Q1008 BECMG 5000M=

 

--- End of List ---